Time;durP1;ratioP1;P1;durP2;ratioP2;P2;SDS_P1;SDS_P2;PMS_P1;PMS_P2;Temp;Humidity;BMP_temperature;BMP_pressure;BME280_temperature;BME280_humidity;BME280_pressure;Samples;Min_cycle;Max_cycle;Signal;HPM_P1;HPM_P2
2022/11/27 00:00:57;;;;;;;30.97;17.47;;;;;;;1.27;100.00;97498.88;4897936;28;20043;-82
2022/11/27 00:03:23;;;;;;;30.97;16.60;;;;;;;1.27;100.00;97494.53;4914582;28;20048;-83
2022/11/27 00:05:56;;;;;;;34.87;17.13;;;;;;;1.22;100.00;97491.34;4950465;28;20034;-83
2022/11/27 00:08:23;;;;;;;;;;;;;;;1.16;100.00;97487.28;4945061;28;20026;-83
2022/11/27 00:10:49;;;;;;;31.80;17.07;;;;;;;1.18;100.00;97490.66;4947005;28;19914;-83
2022/11/27 00:13:22;;;;;;;30.83;16.63;;;;;;;1.18;100.00;97477.69;4928644;28;20038;-83
2022/11/27 00:15:48;;;;;;;32.78;17.88;;;;;;;1.13;100.00;97487.41;4939698;28;20035;-82
2022/11/27 00:18:14;;;;;;;30.17;16.97;;;;;;;1.15;100.00;97479.59;4926894;28;20454;-83
2022/11/27 00:20:39;;;;;;;29.77;17.43;;;;;;;1.16;100.00;97478.66;4941294;28;20090;-82
2022/11/27 00:23:05;;;;;;;30.10;16.13;;;;;;;1.19;100.00;97481.13;4948578;28;20039;-83
2022/11/27 00:25:31;;;;;;;29.70;17.70;;;;;;;1.09;100.00;97477.28;4929474;28;20023;-83
2022/11/27 00:27:56;;;;;;;30.70;17.07;;;;;;;1.07;100.00;97477.31;4947534;28;20108;-83
2022/11/27 00:30:22;;;;;;;31.93;17.30;;;;;;;0.98;100.00;97472.59;4938634;28;20077;-84
2022/11/27 00:32:48;;;;;;;37.80;19.20;;;;;;;0.99;100.00;97469.06;4954724;28;20111;-83
2022/11/27 00:35:14;;;;;;;29.90;16.73;;;;;;;1.00;100.00;97464.72;4928009;28;20026;-83
2022/11/27 00:37:39;;;;;;;29.23;17.27;;;;;;;0.92;100.00;97458.16;4931387;28;20039;-83
2022/11/27 00:40:05;;;;;;;35.63;17.00;;;;;;;0.86;100.00;97450.66;4924511;28;20114;-83
2022/11/27 00:42:33;;;;;;;28.70;16.27;;;;;;;0.86;100.00;97450.66;4939585;28;20037;-83
2022/11/27 00:44:59;;;;;;;26.73;15.50;;;;;;;0.88;100.00;97446.25;4921714;28;20047;-83
2022/11/27 00:47:24;;;;;;;30.20;16.30;;;;;;;0.87;100.00;97451.50;4908436;28;20121;-82
2022/11/27 00:49:50;;;;;;;36.67;17.00;;;;;;;0.91;100.00;97450.47;4911886;28;20023;-83
2022/11/27 00:52:16;;;;;;;34.13;16.90;;;;;;;0.88;100.00;97441.09;4912573;28;20038;-83
2022/11/27 00:54:42;;;;;;;31.13;17.00;;;;;;;0.99;100.00;97450.94;4909822;28;20101;-83
2022/11/27 00:57:07;;;;;;;28.90;16.80;;;;;;;1.03;100.00;97446.47;4909356;28;20031;-83
2022/11/27 00:59:33;;;;;;;33.30;15.37;;;;;;;0.98;100.00;97438.91;4891821;28;20589;-83
2022/11/27 01:01:59;;;;;;;26.53;15.87;;;;;;;1.02;100.00;97444.78;4911963;28;20046;-82
2022/11/27 01:04:24;;;;;;;29.63;15.77;;;;;;;1.06;100.00;97443.72;4910309;28;20426;-83
2022/11/27 01:06:50;;;;;;;31.67;15.57;;;;;;;1.05;100.00;97436.88;4894287;28;20042;-82
2022/11/27 01:09:16;;;;;;;26.47;14.87;;;;;;;1.11;100.00;97434.00;4908046;28;20035;-83
2022/11/27 01:11:54;;;;;;;25.63;14.97;;;;;;;1.06;100.00;97431.63;4909952;28;20150;-82
2022/11/27 01:14:20;;;;;;;30.00;16.30;;;;;;;0.96;100.00;97427.78;4927661;28;20039;-83
2022/11/27 01:16:46;;;;;;;29.37;14.87;;;;;;;1.02;100.00;97421.47;4924584;29;20747;-83
2022/11/27 01:19:15;;;;;;;26.17;15.73;;;;;;;0.97;100.00;97408.72;4921790;29;20059;-83
2022/11/27 01:21:41;;;;;;;29.03;15.13;;;;;;;0.91;100.00;97414.22;4939492;28;20074;-83
2022/11/27 01:24:08;;;;;;;25.80;14.53;;;;;;;0.93;100.00;97408.03;4923145;28;20473;-83
2022/11/27 01:26:34;;;;;;;29.57;15.30;;;;;;;0.99;100.00;97400.91;4950803;28;21469;-83
2022/11/27 01:29:05;;;;;;;26.07;14.57;;;;;;;1.01;100.00;97412.88;4938948;28;20054;-83
2022/11/27 01:31:32;;;;;;;26.67;13.83;;;;;;;1.09;100.00;97408.16;4938720;28;20046;-83
2022/11/27 01:34:11;;;;;;;27.23;14.23;;;;;;;1.11;100.00;97408.09;4943728;28;20466;-83
2022/11/27 01:36:37;;;;;;;26.33;13.17;;;;;;;1.18;100.00;97412.09;4904730;28;20042;-83
2022/11/27 01:39:03;;;;;;;25.20;14.10;;;;;;;1.20;100.00;97399.03;4908963;28;20154;-83
2022/11/27 01:41:35;;;;;;;25.33;14.40;;;;;;;1.26;100.00;97401.34;4893404;28;20061;-82
2022/11/27 01:44:22;;;;;;;26.77;13.77;;;;;;;1.24;100.00;97396.25;4910083;28;20079;-83
2022/11/27 01:47:10;;;;;;;22.90;12.17;;;;;;;1.33;100.00;97387.19;4907708;28;20035;-83
2022/11/27 01:49:51;;;;;;;24.00;14.13;;;;;;;1.38;100.00;97393.00;4894139;28;20058;-83
2022/11/27 01:52:26;;;;;;;28.67;14.13;;;;;;;1.42;100.00;97389.31;4924429;28;20036;-83
2022/11/27 01:55:07;;;;;;;22.80;13.80;;;;;;;1.48;100.00;97383.84;4895991;28;20058;-83
2022/11/27 01:57:45;;;;;;;23.23;12.87;;;;;;;1.46;100.00;97382.25;4925223;28;20053;-82
2022/11/27 02:00:14;;;;;;;22.13;11.57;;;;;;;1.48;100.00;97372.66;4927152;28;20976;-83
2022/11/27 02:02:41;;;;;;;24.80;12.90;;;;;;;1.49;100.00;97362.19;4912134;28;20822;-83
2022/11/27 02:05:08;;;;;;;20.73;12.70;;;;;;;1.44;100.00;97361.56;4920605;28;20031;-83
2022/11/27 02:07:34;;;;;;;21.20;12.70;;;;;;;1.46;100.00;97349.38;4960288;28;20482;-84
2022/11/27 02:10:00;;;;;;;19.77;11.53;;;;;;;1.40;100.00;97350.50;4940436;28;20455;-83
2022/11/27 02:16:29;;;;;;;21.33;12.20;;;;;;;1.57;100.00;97341.06;4960572;28;20027;-82
2022/11/27 02:19:06;;;;;;;19.27;10.93;;;;;;;1.55;100.00;97338.56;4924663;28;20053;-82
2022/11/27 02:21:43;;;;;;;18.57;11.77;;;;;;;1.59;100.00;97334.91;4938238;28;20041;-82
2022/11/27 02:24:31;;;;;;;20.93;11.53;;;;;;;1.68;100.00;97335.34;4955510;28;20026;-82
2022/11/27 02:27:34;;;;;;;20.73;10.67;;;;;;;1.71;100.00;97333.44;4947168;28;20027;-82
2022/11/27 02:30:04;;;;;;;17.23;10.27;;;;;;;1.67;100.00;97331.91;4908968;28;20035;-83
2022/11/27 02:32:48;;;;;;;15.23;9.87;;;;;;;1.65;100.00;97319.03;4954827;28;20035;-83
2022/11/27 02:35:19;;;;;;;;;;;;;;;1.73;100.00;97313.44;4927747;28;20043;-82
2022/11/27 02:37:48;;;;;;;19.83;10.40;;;;;;;1.68;100.00;97312.84;4925703;28;20299;-83
2022/11/27 02:40:26;;;;;;;17.47;10.27;;;;;;;1.68;100.00;97315.44;4912405;28;20474;-82
2022/11/27 02:42:58;;;;;;;17.17;9.63;;;;;;;1.71;100.00;97314.44;4910143;28;20459;-83
2022/11/27 02:45:45;;;;;;;15.90;9.23;;;;;;;1.62;100.00;97313.16;4914033;28;20035;-80
2022/11/27 02:48:15;;;;;;;21.63;11.17;;;;;;;1.58;100.00;97311.66;4916441;28;20042;-83
2022/11/27 02:50:43;;;;;;;18.87;10.60;;;;;;;1.55;100.00;97302.25;4904586;28;20043;-83
2022/11/27 02:53:18;;;;;;;18.10;9.27;;;;;;;1.50;100.00;97308.59;4923034;28;20035;-83
2022/11/27 02:55:45;;;;;;;18.77;9.50;;;;;;;1.45;100.00;97305.41;4914995;28;20046;-83
2022/11/27 02:58:16;;;;;;;17.33;9.30;;;;;;;1.44;100.00;97314.91;4925027;28;20049;-83
2022/11/27 03:00:44;;;;;;;20.10;11.07;;;;;;;1.41;100.00;97309.91;4908844;28;20070;-83
2022/11/27 03:03:14;;;;;;;19.37;9.27;;;;;;;1.51;100.00;97303.34;4924737;28;20047;-82
2022/11/27 03:05:44;;;;;;;23.73;9.83;;;;;;;1.46;100.00;97301.88;4924664;28;20449;-83
2022/11/27 03:08:17;;;;;;;17.33;9.57;;;;;;;1.41;100.00;97300.38;4938002;28;20046;-83
2022/11/27 03:11:05;;;;;;;16.75;10.43;;;;;;;1.33;100.00;97297.31;4944443;28;20035;-83
2022/11/27 03:13:38;;;;;;;18.80;9.43;;;;;;;1.30;100.00;97301.81;4942333;28;20097;-83
2022/11/27 03:16:42;;;;;;;18.40;10.52;;;;;;;1.29;100.00;97305.31;4961568;28;20062;-83
2022/11/27 03:19:14;;;;;;;18.95;10.15;;;;;;;1.20;100.00;97292.81;4949917;28;21019;-83
2022/11/27 03:21:48;;;;;;;17.33;9.07;;;;;;;1.14;100.00;97291.34;4957762;28;20047;-83
2022/11/27 03:24:14;;;;;;;17.03;9.53;;;;;;;1.10;100.00;97292.41;4939022;28;20035;-83
2022/11/27 03:26:40;;;;;;;20.40;12.07;;;;;;;1.20;100.00;97290.22;4943932;28;20030;-83
2022/11/27 03:29:15;;;;;;;17.77;9.07;;;;;;;1.22;100.00;97294.41;4941104;28;20039;-83
2022/11/27 03:31:41;;;;;;;20.30;10.47;;;;;;;1.28;100.00;97291.53;4944433;28;20035;-83
2022/11/27 03:34:07;;;;;;;20.97;10.77;;;;;;;1.29;100.00;97288.00;4944361;28;20474;-83
2022/11/27 03:36:33;;;;;;;19.80;10.40;;;;;;;1.29;100.00;97292.38;4913486;28;20043;-83
2022/11/27 03:38:59;;;;;;;24.17;10.70;;;;;;;1.32;100.00;97285.28;4911111;28;20042;-83
2022/11/27 03:41:56;;;;;;;17.40;11.67;;;;;;;1.31;100.00;97290.53;4899628;28;20046;-83
2022/11/27 03:44:33;;;;;;;19.43;10.90;;;;;;;1.30;100.00;97292.28;4897364;28;20482;-83
2022/11/27 03:47:18;;;;;;;19.60;10.90;;;;;;;1.30;100.00;97291.44;4903748;28;20477;-83
2022/11/27 03:50:18;;;;;;;23.67;11.73;;;;;;;1.32;100.00;97295.63;4914987;28;23150;-82
2022/11/27 03:52:59;;;;;;;23.07;12.70;;;;;;;1.25;100.00;97299.44;4905081;28;21892;-84
2022/11/27 03:55:52;;;;;;;19.23;10.30;;;;;;;1.17;100.00;97297.25;4885096;28;20443;-82
2022/11/27 03:58:41;;;;;;;20.15;11.00;;;;;;;1.15;100.00;97299.06;4879759;28;20043;-82
2022/11/27 04:01:11;;;;;;;17.80;11.37;;;;;;;1.11;100.00;97291.53;4850752;28;20047;-83
2022/11/27 04:03:37;;;;;;;16.57;9.33;;;;;;;1.03;100.00;97289.28;4871386;28;20826;-84
2022/11/27 04:06:03;;;;;;;21.43;10.50;;;;;;;0.94;100.00;97284.56;4883125;28;20031;-83
2022/11/27 04:08:29;;;;;;;17.03;10.07;;;;;;;0.87;100.00;97276.25;4891431;28;20027;-83
2022/11/27 04:10:55;;;;;;;16.87;9.67;;;;;;;0.94;100.00;97279.41;4892384;28;20032;-83
2022/11/27 04:13:20;;;;;;;19.17;9.70;;;;;;;0.90;100.00;97268.31;4911405;28;20046;-83
2022/11/27 04:15:46;;;;;;;16.17;9.87;;;;;;;0.90;100.00;97288.19;4910823;28;20045;-84
2022/11/27 04:18:13;;;;;;;16.77;9.57;;;;;;;0.93;100.00;97285.47;4916245;28;20075;-83
2022/11/27 04:20:38;;;;;;;18.27;9.57;;;;;;;0.86;100.00;97287.50;4912999;28;20050;-83
2022/11/27 04:23:04;;;;;;;17.23;10.33;;;;;;;0.89;100.00;97295.13;4933921;28;20828;-83
2022/11/27 04:25:31;;;;;;;20.53;10.00;;;;;;;0.82;100.00;97295.50;4942663;28;20081;-83
2022/11/27 04:27:57;;;;;;;19.00;9.47;;;;;;;0.87;100.00;97296.13;4936421;28;20034;-83
2022/11/27 04:30:23;;;;;;;20.77;10.37;;;;;;;0.85;100.00;97295.38;4958480;28;20782;-83
2022/11/27 04:32:52;;;;;;;16.90;9.83;;;;;;;0.85;100.00;97293.63;4948536;28;20028;-83
2022/11/27 04:35:18;;;;;;;17.37;8.97;;;;;;;0.86;100.00;97300.47;4931858;28;20895;-83
2022/11/27 04:37:44;;;;;;;19.07;9.77;;;;;;;0.81;100.00;97304.19;4907860;28;20035;-82
2022/11/27 04:40:11;;;;;;;15.33;9.43;;;;;;;0.79;100.00;97306.00;4894287;28;20036;-82
2022/11/27 04:42:36;;;;;;;16.93;9.80;;;;;;;0.75;100.00;97299.31;4907619;28;20027;-83
2022/11/27 04:45:03;;;;;;;17.73;10.77;;;;;;;0.73;100.00;97301.94;4909919;28;20533;-83
2022/11/27 04:47:29;;;;;;;16.23;9.90;;;;;;;0.74;100.00;97303.66;4921427;28;20031;-83
2022/11/27 04:49:55;;;;;;;16.37;9.73;;;;;;;0.68;100.00;97304.78;4908660;28;20481;-83
2022/11/27 04:52:21;;;;;;;15.17;9.47;;;;;;;0.69;100.00;97311.63;4894275;28;20202;-82
2022/11/27 04:54:47;;;;;;;18.47;9.87;;;;;;;0.64;100.00;97305.84;4913213;28;20027;-82
2022/11/27 04:57:13;;;;;;;21.70;9.90;;;;;;;0.61;100.00;97313.75;4923277;28;20588;-82
2022/11/27 04:59:43;;;;;;;15.03;8.90;;;;;;;0.59;100.00;97312.13;4930861;28;20449;-83
2022/11/27 05:02:10;;;;;;;17.07;10.53;;;;;;;0.52;100.00;97300.38;4906515;28;20405;-83
2022/11/27 05:04:36;;;;;;;19.30;10.20;;;;;;;0.49;100.00;97296.19;4924879;28;20467;-83
2022/11/27 05:07:02;;;;;;;23.07;10.10;;;;;;;0.52;100.00;97303.81;4911345;28;20035;-83
2022/11/27 05:09:28;;;;;;;17.43;8.77;;;;;;;0.52;100.00;97293.44;4908402;28;20485;-83
2022/11/27 05:11:54;;;;;;;17.63;9.07;;;;;;;0.57;100.00;97307.03;4906546;28;20561;-83
2022/11/27 05:14:21;;;;;;;18.87;8.23;;;;;;;0.53;100.00;97296.88;4897514;28;20035;-82
2022/11/27 05:16:53;;;;;;;13.97;8.60;;;;;;;0.50;100.00;97299.59;4903865;28;20564;-82
2022/11/27 05:19:21;;;;;;;15.73;8.63;;;;;;;0.53;100.00;97295.13;4888659;28;20489;-83
2022/11/27 05:21:48;;;;;;;13.97;8.00;;;;;;;0.53;100.00;97291.69;4900477;28;20558;-83
2022/11/27 05:24:16;;;;;;;16.00;8.67;;;;;;;0.44;100.00;97290.41;4921711;28;20526;-83
2022/11/27 05:26:42;;;;;;;15.57;7.73;;;;;;;0.41;100.00;97285.34;4905329;28;20467;-83
2022/11/27 05:29:09;;;;;;;13.63;8.63;;;;;;;0.22;100.00;97281.00;4908756;28;20497;-83
2022/11/27 05:31:46;;;;;;;15.40;9.17;;;;;;;0.22;100.00;97280.19;4894187;28;23134;-83
2022/11/27 05:34:15;;;;;;;12.95;8.05;;;;;;;0.14;100.00;97267.59;4887953;28;21045;-83
2022/11/27 05:36:41;;;;;;;12.80;7.43;;;;;;;0.14;100.00;97259.00;4909222;28;21314;-82
2022/11/27 05:39:08;;;;;;;12.97;8.60;;;;;;;0.05;100.00;97260.25;4940647;28;20498;-83
2022/11/27 05:41:35;;;;;;;12.27;6.97;;;;;;;0.07;100.00;97255.00;4917494;28;20118;-82
2022/11/27 05:44:01;;;;;;;13.90;8.07;;;;;;;0.04;100.00;97253.41;4907336;28;21197;-83
2022/11/27 05:46:31;;;;;;;13.97;8.20;;;;;;;0.01;100.00;97257.88;4908440;28;20469;-82
2022/11/27 05:48:57;;;;;;;14.90;7.50;;;;;;;-0.04;100.00;97260.66;4889111;28;20471;-83
2022/11/27 05:51:23;;;;;;;12.30;7.67;;;;;;;-0.03;100.00;97259.78;4890289;28;20466;-82
2022/11/27 05:53:49;;;;;;;13.27;7.20;;;;;;;-0.05;100.00;97262.41;4903307;28;20113;-83
2022/11/27 05:56:17;;;;;;;13.87;7.87;;;;;;;-0.06;100.00;97259.91;4891567;28;20477;-82
2022/11/27 05:58:47;;;;;;;14.57;7.80;;;;;;;-0.12;100.00;97255.00;4908325;28;20475;-83
2022/11/27 06:01:15;;;;;;;19.27;8.50;;;;;;;-0.18;100.00;97252.69;4915401;28;20470;-83
2022/11/27 06:03:41;;;;;;;12.73;8.07;;;;;;;-0.28;100.00;97250.50;4908317;28;20470;-82
2022/11/27 06:06:08;;;;;;;15.33;7.63;;;;;;;-0.27;100.00;97246.16;4909084;28;20899;-81
2022/11/27 06:08:39;;;;;;;14.13;8.43;;;;;;;-0.32;100.00;97253.31;4910520;28;20471;-82
2022/11/27 06:11:20;;;;;;;15.63;8.33;;;;;;;-0.37;100.00;97253.50;4923437;28;20472;-82
2022/11/27 06:13:49;;;;;;;14.50;8.83;;;;;;;-0.29;100.00;97251.41;4920794;28;20832;-83
2022/11/27 06:16:18;;;;;;;16.13;8.70;;;;;;;-0.34;100.00;97255.94;4941661;28;20461;-83
2022/11/27 06:18:44;;;;;;;17.37;9.33;;;;;;;-0.29;100.00;97258.34;4943488;28;20479;-83
2022/11/27 06:21:14;;;;;;;15.73;9.03;;;;;;;-0.29;100.00;97254.00;4936610;28;20514;-83
2022/11/27 06:23:55;;;;;;;15.60;8.50;;;;;;;-0.31;100.00;97250.63;4941364;28;20478;-83
2022/11/27 06:26:27;;;;;;;14.53;7.90;;;;;;;-0.34;100.00;97239.59;4938935;28;20481;-83
2022/11/27 06:28:54;;;;;;;16.87;8.57;;;;;;;-0.34;100.00;97237.84;4948722;28;20490;-83
2022/11/27 06:31:23;;;;;;;14.90;8.50;;;;;;;-0.36;100.00;97239.69;4933843;28;20475;-83
2022/11/27 06:33:50;;;;;;;16.23;8.90;;;;;;;-0.33;100.00;97242.13;4957290;28;20458;-83
2022/11/27 06:36:17;;;;;;;18.27;9.33;;;;;;;-0.40;100.00;97245.91;4920324;28;20479;-82
2022/11/27 06:38:43;;;;;;;16.10;8.67;;;;;;;-0.33;100.00;97236.97;4891333;28;20471;-83
2022/11/27 06:41:13;;;;;;;15.57;9.13;;;;;;;-0.36;100.00;97237.09;4909573;28;20474;-83
2022/11/27 06:43:39;;;;;;;18.33;12.10;;;;;;;-0.29;100.00;97232.50;4907176;28;20455;-81
2022/11/27 06:46:09;;;;;;;16.10;11.03;;;;;;;-0.31;100.00;97219.63;4909629;28;20529;-81
2022/11/27 06:48:35;;;;;;;17.03;9.63;;;;;;;-0.14;100.00;97223.19;4910542;28;20466;-81
2022/11/27 06:51:04;;;;;;;19.00;10.10;;;;;;;0.00;100.00;97223.44;4904838;28;20454;-82
2022/11/27 06:53:32;;;;;;;13.80;8.03;;;;;;;-0.01;100.00;97221.75;4905284;28;20122;-81
2022/11/27 06:55:57;;;;;;;16.07;7.90;;;;;;;-0.01;100.00;97222.56;4891222;28;20463;-81
2022/11/27 06:58:24;;;;;;;14.70;8.13;;;;;;;-0.04;100.00;97232.22;4923916;28;20549;-82
2022/11/27 07:00:55;;;;;;;13.93;7.27;;;;;;;0.16;100.00;97226.97;4907067;28;20043;-81
2022/11/27 07:03:28;;;;;;;13.20;7.53;;;;;;;0.09;100.00;97235.09;4891365;28;20471;-81
2022/11/27 07:05:54;;;;;;;13.02;7.38;;;;;;;0.13;100.00;97236.63;4909346;28;20964;-80
2022/11/27 07:08:21;;;;;;;13.70;7.73;;;;;;;0.15;100.00;97225.31;4898853;28;20506;-81
2022/11/27 07:10:47;;;;;;;12.67;6.97;;;;;;;0.24;100.00;97224.03;4901925;28;20027;-81
2022/11/27 07:13:13;;;;;;;12.17;6.30;;;;;;;0.30;100.00;97221.16;4903417;28;21954;-82
2022/11/27 07:15:38;;;;;;;12.47;7.13;;;;;;;0.38;100.00;97228.56;4889083;28;20040;-82
2022/11/27 07:18:07;;;;;;;13.47;6.77;;;;;;;0.38;100.00;97221.66;4926611;28;20174;-82
2022/11/27 07:20:43;;;;;;;12.67;6.63;;;;;;;0.43;100.00;97219.66;4914630;28;20043;-83
2022/11/27 07:23:11;;;;;;;11.37;6.73;;;;;;;0.48;100.00;97224.63;4900778;28;20909;-82
2022/11/27 07:25:39;;;;;;;13.00;6.47;;;;;;;0.60;100.00;97225.78;4927042;28;20467;-82
2022/11/27 07:28:06;;;;;;;11.23;6.73;;;;;;;0.64;100.00;97224.75;4899736;28;20462;-81
2022/11/27 07:30:33;;;;;;;11.90;7.00;;;;;;;0.73;100.00;97226.03;4938532;28;20467;-83
2022/11/27 07:33:00;;;;;;;17.23;7.47;;;;;;;0.82;100.00;97218.66;4930289;28;20058;-83
2022/11/27 07:35:26;;;;;;;13.30;6.47;;;;;;;0.93;100.00;97218.97;4916818;28;20035;-83
2022/11/27 07:38:04;;;;;;;11.00;5.90;;;;;;;1.04;100.00;97213.28;4942037;28;20553;-82
2022/11/27 07:40:44;;;;;;;9.80;5.10;;;;;;;1.20;100.00;97202.13;4927360;28;20031;-82
2022/11/27 07:43:12;;;;;;;9.40;4.57;;;;;;;1.35;100.00;97198.75;4957453;28;20506;-83
2022/11/27 07:45:43;;;;;;;7.33;4.60;;;;;;;1.54;100.00;97190.84;4958585;28;20585;-84
2022/11/27 07:48:08;;;;;;;11.43;6.00;;;;;;;1.60;100.00;97178.41;4944366;28;20082;-83
2022/11/27 07:50:34;;;;;;;11.67;5.53;;;;;;;1.71;100.00;97179.59;4959636;28;20543;-83
2022/11/27 07:53:04;;;;;;;10.30;5.73;;;;;;;1.91;100.00;97176.78;4938250;28;20098;-83
2022/11/27 07:55:36;;;;;;;10.07;5.67;;;;;;;2.11;100.00;97173.09;4914820;28;20490;-82
2022/11/27 07:58:02;;;;;;;11.80;4.97;;;;;;;2.35;100.00;97178.72;4914596;28;20062;-83
2022/11/27 08:00:27;;;;;;;10.90;5.13;;;;;;;2.54;100.00;97176.72;4912498;28;20063;-82
2022/11/27 08:02:53;;;;;;;9.77;4.80;;;;;;;2.79;100.00;97164.97;4900031;28;20050;-83
2022/11/27 08:05:21;;;;;;;7.30;4.70;;;;;;;3.04;100.00;97170.41;4915677;29;20055;-83
2022/11/27 08:07:47;;;;;;;11.57;5.67;;;;;;;3.16;100.00;97170.63;4917781;29;20106;-84
2022/11/27 08:10:28;;;;;;;11.43;5.70;;;;;;;3.21;100.00;97164.22;4912224;29;20031;-83
2022/11/27 08:12:54;;;;;;;7.57;3.70;;;;;;;3.06;100.00;97157.34;4917351;29;20039;-83
2022/11/27 08:15:21;;;;;;;8.03;4.40;;;;;;;3.18;100.00;97163.56;4935754;29;20083;-83
2022/11/27 08:17:47;;;;;;;7.80;4.30;;;;;;;3.12;100.00;97153.50;4936048;29;20043;-83
2022/11/27 08:20:13;;;;;;;8.60;4.17;;;;;;;3.54;100.00;97144.91;4916966;29;20043;-83
2022/11/27 08:22:39;;;;;;;7.83;3.53;;;;;;;3.49;100.00;97134.81;4949727;29;20028;-83
2022/11/27 08:25:05;;;;;;;5.47;3.17;;;;;;;3.70;100.00;97131.81;4932278;29;20050;-83
2022/11/27 08:27:35;;;;;;;6.20;3.30;;;;;;;3.95;100.00;97121.53;4937648;29;20537;-85
2022/11/27 08:30:07;;;;;;;10.87;3.60;;;;;;;3.86;100.00;97121.28;4948857;29;20031;-84
2022/11/27 08:32:36;;;;;;;6.93;3.13;;;;;;;4.31;100.00;97114.91;4938396;29;20047;-84
2022/11/27 08:35:17;;;;;;;6.30;2.77;;;;;;;4.47;100.00;97102.56;4936914;29;20035;-85
2022/11/27 08:37:47;;;;;;;10.97;5.30;;;;;;;4.35;100.00;97111.19;4941309;29;20102;-86
2022/11/27 08:40:12;;;;;;;14.10;6.63;;;;;;;4.32;100.00;97113.97;4934368;29;20066;-85
2022/11/27 08:42:38;;;;;;;12.13;6.03;;;;;;;4.09;100.00;97112.00;4923223;29;20489;-89
2022/11/27 08:45:06;;;;;;;10.13;4.60;;;;;;;4.15;100.00;97120.28;4926625;28;20019;-87
2022/11/27 08:47:38;;;;;;;7.10;4.00;;;;;;;4.36;100.00;97119.81;4925716;29;20042;-87
2022/11/27 08:50:06;;;;;;;7.65;4.90;;;;;;;4.14;100.00;97112.56;4948121;29;20028;-85
2022/11/27 08:52:39;;;;;;;6.90;3.70;;;;;;;4.80;100.00;97111.72;4939088;29;20513;-88
2022/11/27 08:55:05;;;;;;;7.93;3.53;;;;;;;4.60;100.00;97105.22;4923800;29;20073;-85
2022/11/27 08:57:32;;;;;;;6.97;3.20;;;;;;;5.03;100.00;97106.72;4941307;29;20445;-87
2022/11/27 08:59:57;;;;;;;6.67;3.80;;;;;;;5.12;100.00;97100.88;4942771;29;20067;-95
2022/11/27 09:02:23;;;;;;;8.20;3.77;;;;;;;4.90;100.00;97097.13;4940077;28;20050;-88
2022/11/27 09:05:20;;;;;;;5.67;3.27;;;;;;;4.25;100.00;97094.47;4938936;29;20517;-85
2022/11/27 09:07:48;;;;;;;8.27;3.53;;;;;;;3.92;100.00;97093.13;4952645;29;20043;-86
2022/11/27 09:10:14;;;;;;;6.10;3.07;;;;;;;3.64;100.00;97106.19;4955653;29;20035;-85
2022/11/27 09:12:40;;;;;;;9.13;3.00;;;;;;;3.24;100.00;97109.44;4947889;28;20046;-84
2022/11/27 09:15:06;;;;;;;6.20;3.20;;;;;;;3.02;100.00;97109.91;4946204;29;20031;-84
2022/11/27 09:17:38;;;;;;;7.80;3.40;;;;;;;3.14;100.00;97107.50;4946526;29;20031;-85
2022/11/27 09:20:05;;;;;;;7.40;3.20;;;;;;;3.20;100.00;97100.16;4937286;29;20031;-84
2022/11/27 09:22:33;;;;;;;7.27;3.30;;;;;;;3.12;100.00;97101.53;4912347;29;20055;-83
2022/11/27 09:25:05;;;;;;;6.60;3.33;;;;;;;3.01;100.00;97104.78;4934647;29;20066;-84
2022/11/27 09:27:31;;;;;;;7.40;2.87;;;;;;;3.27;100.00;97104.06;4918307;29;20031;-86
2022/11/27 09:29:57;;;;;;;6.83;3.57;;;;;;;3.07;100.00;97105.25;4917881;29;20043;-83
2022/11/27 09:32:34;;;;;;;6.57;3.53;;;;;;;3.20;100.00;97107.97;4937298;29;20035;-82
2022/11/27 09:34:59;;;;;;;5.27;2.63;;;;;;;3.11;100.00;97105.06;4945755;29;20046;-83
2022/11/27 09:37:25;;;;;;;8.97;3.23;;;;;;;3.10;100.00;97108.59;4939398;29;20130;-83
2022/11/27 09:39:51;;;;;;;5.50;2.77;;;;;;;3.20;100.00;97101.94;4950540;29;20055;-86
2022/11/27 09:42:38;;;;;;;4.77;2.70;;;;;;;3.26;100.00;97098.97;4933129;29;20045;-86
2022/11/27 13:03:33;;;;;;;6.10;3.80;;;;;;;5.02;100.00;96807.88;4946453;29;20098;-76
2022/11/27 17:27:39;;;;;;;;;;;;;;;0.11;100.00;96635.88;4959208;29;20979;-89
2022/11/27 17:31:23;;;;;;;16.07;10.93;;;;;;;0.14;100.00;96627.94;4916192;29;20373;-91
2022/11/27 17:34:18;;;;;;;15.40;10.97;;;;;;;0.14;100.00;96615.03;4907523;29;20483;-89
2022/11/27 17:37:06;;;;;;;13.77;9.83;;;;;;;0.19;100.00;96603.47;4887556;29;20491;-90
2022/11/27 17:39:39;;;;;;;16.27;9.87;;;;;;;0.23;100.00;96598.97;4927492;29;20480;-90
2022/11/27 17:42:30;;;;;;;13.90;8.68;;;;;;;0.18;100.00;96603.56;4963246;28;20571;-93
2022/11/27 18:08:22;;;;;;;14.27;9.60;;;;;;;0.26;100.00;96569.50;4875974;29;20551;-90
2022/11/27 18:26:40;;;;;;;17.97;11.63;;;;;;;0.24;100.00;96548.91;4877841;29;20460;-88
2022/11/27 18:29:08;;;;;;;19.10;12.03;;;;;;;0.28;100.00;96547.81;4866753;29;20469;-89
2022/11/27 18:32:06;;;;;;;20.40;12.70;;;;;;;0.20;100.00;96547.41;4865983;29;20486;-90
2022/11/27 18:34:35;;;;;;;16.37;10.57;;;;;;;0.21;100.00;96549.09;4948343;29;20458;-89
